Conover, Iowa
Current Conditions -  °F | °C
As of 11:55 PM on Sunday 19 Oct 2014 (Local Time) from KDEH Reporting Station
Clear Clear  
Wind Chill: 52°   Ceiling: Unl
Heat Index: 52°   Visibility: 10mi
Dew Point: 46°   Wind: 6mph
Humidity: 82%   Direction: NA
Pressure: 29.82"   Gusts: NA
Location:  43.2097°N, 91.9613°W
Report Text: KDEH 200455Z AUTO VRB05KT 10SM CLR 11/08 A2982 RMK AO2
Loading
Personal Weather Stations






























Interactive Weather Map
Tropical Storm Tracking
New forecast layout! Learn more

10-Day Weather Forecast

Advertisements
Track Severe Weather on mobile